METAR AND TAF INFORMATION
METAR FOR ENCN
ADDS - METARS form results

(0634 UTC 17 October 2021)
Data provider http://aviationweather.gov/metar/data/
 
METAR text: ENCN 170620Z 06003KT 360V090 9999 PRFG NSC 00/M00 Q1013
Conditions at: ENCN (KRISTIANSAND/KJE, NO) observed 0620 UTC 17 October 2021
Temperature: 0.0°C (32°F)
Dewpoint: 0.0°C (32°F) [RH = 100%]
Pressure (altimeter): 29.91 inches Hg (1013.0 mb)
Winds: from the ENE (60 degrees) at 3 MPH (3 knots; 1.5 m/s)
Visibility: 6 or more miles (10+ km)
Ceiling: at least 12,000 feet AGL
Clouds: sky clear below 12,000 feet AGL
Weather: PRFG  (partial fog)

METAR text: ENCN 170550Z AUTO 00000KT 2100 FG NCD 01/01 Q1013
Conditions at: ENCN (KRISTIANSAND/KJE, NO) observed 0550 UTC 17 October 2021
Temperature: 1.0°C (34°F)
Dewpoint: 1.0°C (34°F) [RH = 100%]
Pressure (altimeter): 29.91 inches Hg (1013.0 mb)
Winds: calm
Visibility: 1.30 miles (2.09 km)
Ceiling: at least 12,000 feet AGL
Clouds: sky clear below 12,000 feet AGL
Weather: FG  (fog)

Forecast for: ENCN (KRISTIANSAND/KJE, NO)
Text: TAF ENCN 170500Z 1706/1715 31005KT CAVOK
Forecast period: 0600 to 1500 UTC 17 October 2021
Forecast type: FROM: standard forecast or significant change
Winds: from the NW (310 degrees) at 6 MPH (5 knots; 2.6 m/s)
Visibility: 6 or more miles (10+ km)
Ceiling: unknown
Clouds: missing
Weather: NSW  (no significant weather)

 AIRPORT MAP

 RUNWAY INFORMATION
Runway 04 Runway length 6660 ft Runway width 148 ft
Runway elevation 41 ft Runway displaced threshold 394 ft Runway heading 35
Runway 22 Runway length 6660 ft Runway width 148 ft
Runway elevation 52 ft Runway displaced threshold 623 ft Runway heading 215

 AIRPORT FREQUENCIES
Type ATIS Name INFO Frequency 124.475 MHZ
Type TWR Name TWR Frequency 118.1 MHZ

 AIRPORT NEAR NAVIGATION AIDS
Type NDB Name Odderoy Frequency 372 KHZ
Type VOR-DME Name Svensheia Frequency 112100 KHZ





Powered by Virtual Airlines Manager

Maps by Rafael Santos